Time;durP1;ratioP1;P1;durP2;ratioP2;P2;SDS_P1;SDS_P2;PMS_P1;PMS_P2;Temp;Humidity;BMP_temperature;BMP_pressure;BME280_temperature;BME280_humidity;BME280_pressure;Samples;Min_cycle;Max_cycle;Signal;HPM_P1;HPM_P2
2021/08/13 00:00:48;;;;;;;9.20;8.17;;;;;;;22.99;75.95;96727.97;5053592;28;20171;-66
2021/08/13 00:03:14;;;;;;;9.03;8.33;;;;;;;22.83;76.75;96731.25;5062700;28;20590;-66
2021/08/13 00:05:39;;;;;;;10.20;7.97;;;;;;;23.00;75.60;96731.47;5072273;28;20707;-66
2021/08/13 00:08:09;;;;;;;8.40;7.60;;;;;;;23.11;75.43;96736.34;5072924;28;20440;-67
2021/08/13 00:10:36;;;;;;;8.90;7.97;;;;;;;22.97;76.42;96732.06;5054799;28;20266;-66
2021/08/13 00:13:01;;;;;;;11.20;8.80;;;;;;;23.05;76.20;96728.69;5053045;28;20438;-66
2021/08/13 00:15:26;;;;;;;8.53;7.40;;;;;;;23.13;76.02;96715.41;5053144;28;20867;-66
2021/08/13 00:17:53;;;;;;;9.30;7.87;;;;;;;23.16;76.21;96716.69;5053663;28;20175;-67
2021/08/13 00:20:20;;;;;;;11.33;7.83;;;;;;;23.18;76.48;96719.88;5053222;28;20171;-66
2021/08/13 00:22:46;;;;;;;9.07;8.17;;;;;;;23.16;76.52;96719.34;5052724;28;20497;-66
2021/08/13 00:25:11;;;;;;;8.67;7.90;;;;;;;23.13;76.57;96726.13;5069667;28;20463;-66
2021/08/13 00:27:38;;;;;;;9.40;8.50;;;;;;;23.19;76.05;96729.50;5073040;28;20954;-66
2021/08/13 00:30:05;;;;;;;8.30;7.60;;;;;;;23.20;76.48;96717.69;5073306;28;20526;-66
2021/08/13 00:32:30;;;;;;;7.90;7.20;;;;;;;23.11;76.63;96714.91;5073048;28;20177;-66
2021/08/13 00:34:55;;;;;;;8.47;7.77;;;;;;;23.14;76.48;96725.03;5071330;28;20870;-66
2021/08/13 00:37:21;;;;;;;10.20;8.03;;;;;;;23.19;76.01;96722.25;5073231;28;20223;-66
2021/08/13 00:39:46;;;;;;;9.93;8.57;;;;;;;23.19;75.66;96724.16;5057111;28;20179;-66
2021/08/13 00:42:11;;;;;;;8.90;8.10;;;;;;;23.10;76.60;96737.44;5053202;28;20186;-66
2021/08/13 00:44:37;;;;;;;8.43;7.63;;;;;;;23.03;77.33;96728.19;5052086;28;20191;-66
2021/08/13 00:47:02;;;;;;;8.90;8.10;;;;;;;23.06;77.32;96731.06;5052349;28;20531;-66
2021/08/13 00:49:28;;;;;;;9.50;8.60;;;;;;;23.09;77.58;96727.81;5052933;28;20655;-66
2021/08/13 00:51:53;;;;;;;9.13;8.23;;;;;;;23.08;77.44;96730.78;5052726;28;20254;-66
2021/08/13 00:54:19;;;;;;;11.00;8.10;;;;;;;23.10;77.15;96725.94;5066018;28;20213;-66
2021/08/13 00:56:45;;;;;;;9.07;8.17;;;;;;;23.04;77.00;96727.91;5072672;28;20185;-66
2021/08/13 00:59:11;;;;;;;9.07;8.27;;;;;;;23.15;75.94;96728.50;5072838;28;20525;-66
2021/08/13 01:01:37;;;;;;;8.40;7.50;;;;;;;23.10;75.17;96736.66;5072868;28;20402;-66
2021/08/13 01:04:03;;;;;;;9.10;8.30;;;;;;;23.16;74.78;96727.41;5059357;28;20529;-66
2021/08/13 01:06:29;;;;;;;8.97;8.17;;;;;;;23.15;74.75;96729.31;5066466;28;20456;-66
2021/08/13 01:08:54;;;;;;;9.70;8.70;;;;;;;23.09;76.19;96721.66;5062911;28;20775;-66
2021/08/13 01:11:35;;;;;;;9.13;8.23;;;;;;;23.06;76.37;96725.69;5052670;28;20175;-66
2021/08/13 01:14:30;;;;;;;10.20;8.13;;;;;;;23.06;76.97;96731.06;5052256;28;20175;-66
2021/08/13 01:16:58;;;;;;;9.23;8.17;;;;;;;23.11;76.62;96730.19;5034002;28;20432;-67
2021/08/13 01:19:41;;;;;;;9.40;8.60;;;;;;;23.07;77.13;96726.50;5054834;28;20887;-66
2021/08/13 01:22:11;;;;;;;8.87;8.03;;;;;;;23.05;77.25;96731.34;5065575;28;20412;-66
2021/08/13 01:24:41;;;;;;;9.30;8.33;;;;;;;23.09;76.94;96732.38;5069492;28;20514;-66
2021/08/13 01:27:29;;;;;;;8.90;8.10;;;;;;;23.14;76.34;96734.94;5056451;28;20535;-66
2021/08/13 01:30:01;;;;;;;9.33;8.53;;;;;;;23.11;76.17;96744.41;5056373;28;20480;-66
2021/08/13 01:32:35;;;;;;;10.20;8.17;;;;;;;22.99;75.24;96757.47;5057383;28;20414;-66
2021/08/13 01:35:16;;;;;;;9.60;8.47;;;;;;;22.86;74.88;96757.44;5056145;28;20524;-66
2021/08/13 01:37:51;;;;;;;9.90;8.60;;;;;;;22.44;75.93;96759.16;5056551;28;20755;-67
2021/08/13 01:40:18;;;;;;;10.53;8.83;;;;;;;22.48;76.44;96756.69;5055298;28;20421;-66
2021/08/13 01:42:46;;;;;;;9.70;8.50;;;;;;;22.47;76.41;96761.25;5055901;28;20939;-66
2021/08/13 01:45:25;;;;;;;8.90;8.10;;;;;;;22.46;76.69;96764.22;5069577;28;20440;-66
2021/08/13 01:47:52;;;;;;;9.43;8.60;;;;;;;22.50;76.34;96757.97;5076194;28;20416;-66
2021/08/13 01:50:19;;;;;;;10.00;9.10;;;;;;;22.39;76.44;96761.88;5076045;28;20404;-66
2021/08/13 01:52:46;;;;;;;9.17;8.30;;;;;;;22.37;76.49;96760.59;5075758;28;20435;-66
2021/08/13 01:55:13;;;;;;;9.30;8.20;;;;;;;22.41;76.13;96750.91;5075924;28;20421;-66
2021/08/13 01:57:39;;;;;;;9.37;8.47;;;;;;;22.43;75.94;96751.38;5076029;28;20750;-66
2021/08/13 02:00:06;;;;;;;12.43;8.03;;;;;;;22.52;75.43;96753.13;5061132;28;20425;-66
2021/08/13 02:02:35;;;;;;;9.07;8.17;;;;;;;22.80;74.70;96753.25;5059898;28;20958;-66
2021/08/13 02:05:03;;;;;;;11.77;8.83;;;;;;;22.79;74.45;96747.09;5075649;28;20834;-66
2021/08/13 02:07:31;;;;;;;10.27;9.17;;;;;;;22.97;73.60;96756.19;5075542;28;20464;-66
2021/08/13 02:09:56;;;;;;;9.17;8.13;;;;;;;23.04;73.62;96752.03;5073863;28;20791;-65
2021/08/13 02:12:22;;;;;;;9.10;8.30;;;;;;;23.12;74.31;96747.84;5072099;28;20412;-66
2021/08/13 02:14:47;;;;;;;9.27;8.33;;;;;;;23.20;74.13;96745.31;5071040;28;21010;-66
2021/08/13 02:17:18;;;;;;;9.70;8.80;;;;;;;23.21;74.21;96748.75;5072105;28;20189;-66
2021/08/13 02:20:03;;;;;;;11.03;8.23;;;;;;;23.09;74.16;96748.47;5072011;28;20163;-66
2021/08/13 02:22:29;;;;;;;9.70;8.73;;;;;;;23.11;74.76;96743.59;5072509;28;20463;-66
2021/08/13 02:24:54;;;;;;;9.37;8.47;;;;;;;23.22;74.39;96745.81;5074832;28;20441;-66
2021/08/13 02:27:20;;;;;;;9.53;8.60;;;;;;;23.32;73.94;96745.63;5075619;28;20201;-66
2021/08/13 02:29:46;;;;;;;12.10;8.97;;;;;;;23.23;74.36;96727.81;5059255;28;20630;-66
2021/08/13 02:32:12;;;;;;;9.80;9.00;;;;;;;23.09;74.87;96730.50;5054962;28;20438;-66
2021/08/13 02:34:38;;;;;;;9.97;9.07;;;;;;;23.18;75.07;96723.34;5055057;28;20861;-66
2021/08/13 02:37:30;;;;;;;9.43;8.53;;;;;;;23.24;74.69;96726.72;5055530;28;20168;-66
2021/08/13 02:40:00;;;;;;;9.33;8.43;;;;;;;23.31;74.36;96732.53;5055258;28;20506;-66
2021/08/13 02:42:36;;;;;;;9.90;9.03;;;;;;;23.47;73.79;96720.41;5055619;28;20481;-66
2021/08/13 02:45:03;;;;;;;9.63;8.70;;;;;;;23.42;74.83;96726.69;5055228;28;20459;-66
2021/08/13 02:47:29;;;;;;;10.40;9.40;;;;;;;23.52;74.85;96735.63;5053862;28;20460;-66
2021/08/13 02:50:01;;;;;;;10.47;9.37;;;;;;;23.53;73.69;96729.16;5073306;28;20421;-66
2021/08/13 02:52:33;;;;;;;12.73;9.27;;;;;;;23.48;73.74;96721.97;5076437;28;20438;-66
2021/08/13 02:55:04;;;;;;;10.63;9.63;;;;;;;23.53;73.59;96716.53;5086875;28;20921;-66
2021/08/13 02:57:33;;;;;;;10.00;9.10;;;;;;;23.51;73.64;96718.72;5075287;28;20401;-66
2021/08/13 03:00:02;;;;;;;9.50;8.70;;;;;;;23.55;73.73;96733.16;5055151;28;20492;-66
2021/08/13 03:02:30;;;;;;;9.30;8.50;;;;;;;23.63;73.94;96729.75;5055070;28;20939;-66
2021/08/13 03:04:57;;;;;;;9.80;8.90;;;;;;;23.67;74.49;96729.94;5054441;28;20426;-66
2021/08/13 03:07:24;;;;;;;11.33;9.33;;;;;;;23.71;74.59;96726.38;5054797;28;20449;-66
2021/08/13 03:09:51;;;;;;;9.97;9.13;;;;;;;23.73;74.66;96729.56;5056791;28;20886;-66
2021/08/13 03:12:17;;;;;;;9.90;8.93;;;;;;;23.77;75.22;96725.16;5095231;28;20400;-66
2021/08/13 03:14:43;;;;;;;10.40;9.50;;;;;;;23.82;75.72;96729.63;5094596;28;20424;-66
2021/08/13 03:17:08;;;;;;;11.03;8.43;;;;;;;23.77;76.25;96730.53;5095078;28;20166;-67
2021/08/13 03:19:35;;;;;;;9.53;8.70;;;;;;;23.80;75.96;96729.94;5074219;28;20420;-66
2021/08/13 03:22:00;;;;;;;10.10;9.10;;;;;;;23.68;75.64;96724.25;5074517;28;20170;-66
2021/08/13 03:24:26;;;;;;;10.43;9.43;;;;;;;23.71;76.45;96731.75;5073927;28;20436;-66
2021/08/13 03:26:52;;;;;;;9.80;8.80;;;;;;;23.52;74.57;96731.03;5074765;28;20244;-67
2021/08/13 03:29:17;;;;;;;9.37;8.57;;;;;;;23.58;74.46;96721.00;5074454;28;20176;-66
2021/08/13 03:31:44;;;;;;;9.70;8.80;;;;;;;23.62;75.28;96717.44;5074482;28;20633;-66
2021/08/13 03:34:10;;;;;;;10.67;9.77;;;;;;;23.66;75.60;96713.03;5055510;28;20670;-66
2021/08/13 03:36:37;;;;;;;9.93;9.03;;;;;;;23.68;74.28;96726.19;5054340;28;20489;-67
2021/08/13 03:39:05;;;;;;;11.30;10.20;;;;;;;23.39;75.70;96727.25;5054427;28;20904;-66
2021/08/13 03:41:30;;;;;;;10.83;9.83;;;;;;;23.40;76.08;96726.19;5053978;28;20409;-66
2021/08/13 03:43:55;;;;;;;21.97;10.20;;;;;;;23.28;76.76;96720.47;5053028;28;20406;-66
2021/08/13 03:46:21;;;;;;;10.53;9.63;;;;;;;23.09;77.56;96725.13;5056040;28;20245;-66
2021/08/13 03:48:46;;;;;;;10.17;9.17;;;;;;;23.16;77.54;96714.00;5075847;28;20200;-66
2021/08/13 03:51:12;;;;;;;10.80;9.90;;;;;;;23.17;77.28;96721.75;5074016;28;20177;-66
2021/08/13 03:53:37;;;;;;;12.70;10.67;;;;;;;23.01;78.16;96738.44;5073682;28;20167;-66
2021/08/13 03:56:03;;;;;;;12.27;9.70;;;;;;;23.14;77.70;96738.44;5073929;28;20722;-66
2021/08/13 03:58:29;;;;;;;10.43;9.40;;;;;;;23.13;77.67;96744.91;5073860;28;20163;-66
2021/08/13 04:00:54;;;;;;;12.63;8.90;;;;;;;23.23;77.59;96751.94;5073882;28;20178;-66
2021/08/13 04:03:19;;;;;;;10.80;9.80;;;;;;;23.17;77.53;96755.84;5072730;28;20202;-66
2021/08/13 04:05:45;;;;;;;10.40;9.60;;;;;;;23.18;77.68;96760.09;5073644;28;20191;-65
2021/08/13 04:08:10;;;;;;;9.60;8.43;;;;;;;23.37;76.92;96753.59;5073907;28;20170;-66
2021/08/13 04:10:35;;;;;;;11.10;10.00;;;;;;;23.47;76.72;96755.28;5073861;28;20182;-66
2021/08/13 04:13:01;;;;;;;10.43;9.47;;;;;;;23.71;75.81;96753.22;5073430;28;20162;-66
2021/08/13 04:15:28;;;;;;;9.70;8.70;;;;;;;23.88;75.98;96764.13;5073508;28;20217;-66
2021/08/13 04:17:54;;;;;;;9.57;8.63;;;;;;;23.99;75.90;96762.81;5059424;28;20179;-65
2021/08/13 04:20:19;;;;;;;10.23;8.83;;;;;;;24.07;76.19;96762.16;5054048;28;20754;-66
2021/08/13 04:22:44;;;;;;;9.40;8.50;;;;;;;24.18;76.25;96755.47;5053182;28;20246;-66
2021/08/13 04:25:10;;;;;;;9.93;9.03;;;;;;;24.22;76.18;96763.72;5053343;28;20244;-66
2021/08/13 04:27:35;;;;;;;10.13;9.13;;;;;;;24.22;76.06;96759.13;5053521;28;20202;-66
2021/08/13 04:30:01;;;;;;;10.10;9.30;;;;;;;24.22;76.32;96763.72;5053616;28;20171;-66
2021/08/13 04:32:26;;;;;;;10.17;9.23;;;;;;;24.23;76.73;96776.03;5065350;28;20185;-66
2021/08/13 04:34:51;;;;;;;10.63;9.47;;;;;;;23.97;77.09;96774.97;5069280;28;20219;-66
2021/08/13 04:37:17;;;;;;;10.33;9.37;;;;;;;24.01;76.81;96784.03;5056351;28;20241;-66
2021/08/13 04:39:42;;;;;;;11.03;9.93;;;;;;;24.15;76.51;96782.91;5073589;28;20171;-66
2021/08/13 04:42:07;;;;;;;9.73;8.93;;;;;;;24.14;76.57;96783.22;5073480;28;20177;-66
2021/08/13 04:44:33;;;;;;;9.87;8.97;;;;;;;24.19;76.74;96780.41;5073078;28;20205;-66
2021/08/13 04:46:59;;;;;;;10.20;9.40;;;;;;;24.10;76.95;96788.41;5067146;28;20604;-66
2021/08/13 04:49:25;;;;;;;10.30;9.30;;;;;;;23.99;75.43;96781.63;5053239;28;20623;-66
2021/08/13 04:51:50;;;;;;;11.50;10.40;;;;;;;24.05;75.13;96795.75;5053278;28;20229;-66
2021/08/13 04:54:16;;;;;;;10.53;9.43;;;;;;;23.98;76.37;96798.03;5072890;28;20194;-66
2021/08/13 04:56:41;;;;;;;11.33;10.33;;;;;;;23.79;76.77;96800.81;5077611;28;20175;-66
2021/08/13 04:59:06;;;;;;;10.60;9.60;;;;;;;23.76;77.23;96795.25;5077518;28;20203;-66
2021/08/13 05:01:32;;;;;;;11.00;9.13;;;;;;;23.90;77.26;96796.03;5077307;28;20171;-66
2021/08/13 05:03:57;;;;;;;11.23;10.13;;;;;;;23.96;77.27;96803.72;5076821;28;20213;-66
2021/08/13 05:06:22;;;;;;;10.33;9.43;;;;;;;23.93;77.40;96798.94;5077119;28;20553;-66
2021/08/13 05:08:48;;;;;;;9.90;8.50;;;;;;;23.84;78.37;96797.25;5070019;28;20181;-66
2021/08/13 05:11:13;;;;;;;10.37;9.47;;;;;;;23.89;77.45;96802.50;5057258;28;20696;-66
2021/08/13 05:13:38;;;;;;;10.87;9.80;;;;;;;23.90;76.87;96799.53;5056747;28;20202;-66
2021/08/13 05:16:04;;;;;;;9.70;8.80;;;;;;;23.82;77.31;96796.75;5056818;28;20209;-66
2021/08/13 05:18:29;;;;;;;10.77;9.73;;;;;;;23.85;76.85;96802.31;5056773;28;20175;-66
2021/08/13 05:20:58;;;;;;;10.70;9.80;;;;;;;23.84;77.25;96798.06;5056903;28;20214;-66
2021/08/13 05:23:24;;;;;;;11.30;10.40;;;;;;;23.88;77.52;96798.25;5062002;28;20253;-67
2021/08/13 05:25:49;;;;;;;12.17;10.00;;;;;;;23.88;77.92;96809.75;5076882;28;20865;-66
2021/08/13 05:28:15;;;;;;;11.60;10.60;;;;;;;23.92;77.59;96808.06;5076927;28;20174;-66
2021/08/13 05:30:41;;;;;;;11.50;10.50;;;;;;;23.90;77.83;96804.09;5076640;28;20305;-66
2021/08/13 05:33:06;;;;;;;10.00;9.10;;;;;;;23.87;78.29;96802.81;5076274;28;20175;-66
2021/08/13 05:35:32;;;;;;;9.90;9.00;;;;;;;23.91;78.50;96808.38;5076541;28;20786;-66
2021/08/13 05:37:58;;;;;;;10.07;9.17;;;;;;;23.84;78.93;96808.00;5073218;28;20167;-65
2021/08/13 05:40:23;;;;;;;11.17;10.00;;;;;;;23.81;79.87;96813.94;5076644;28;20811;-66
2021/08/13 05:42:49;;;;;;;14.63;13.13;;;;;;;23.81;79.84;96812.06;5076305;28;20595;-66
2021/08/13 05:45:14;;;;;;;14.87;12.70;;;;;;;23.79;79.91;96810.78;5076383;28;20726;-66
2021/08/13 05:47:40;;;;;;;11.03;9.97;;;;;;;23.79;79.96;96816.16;5064790;28;20195;-66
2021/08/13 05:50:10;;;;;;;11.00;10.00;;;;;;;23.84;79.54;96813.34;5056368;28;20190;-66
2021/08/13 05:52:35;;;;;;;10.70;9.70;;;;;;;23.81;79.95;96813.94;5058944;28;20167;-66
2021/08/13 05:55:01;;;;;;;10.90;9.90;;;;;;;23.81;79.95;96813.94;5074985;28;20770;-66
2021/08/13 05:57:27;;;;;;;10.97;9.87;;;;;;;23.81;80.22;96806.69;5076137;28;20217;-66
2021/08/13 05:59:52;;;;;;;11.33;10.23;;;;;;;23.80;80.47;96804.31;5076322;28;20410;-66
2021/08/13 06:02:18;;;;;;;11.17;10.07;;;;;;;23.77;80.38;96805.69;5076133;28;20175;-66
2021/08/13 06:04:44;;;;;;;11.07;10.03;;;;;;;23.85;80.50;96804.19;5075280;28;20183;-66
2021/08/13 06:07:09;;;;;;;10.90;9.80;;;;;;;23.79;80.86;96808.88;5073360;28;20202;-66
2021/08/13 06:09:34;;;;;;;10.43;9.53;;;;;;;23.85;79.90;96806.88;5056167;28;20225;-66
2021/08/13 06:12:00;;;;;;;10.60;9.70;;;;;;;23.78;80.68;96806.50;5056027;28;20170;-66
2021/08/13 06:14:25;;;;;;;11.00;9.93;;;;;;;23.71;80.11;96814.94;5055466;28;20670;-66
2021/08/13 06:16:50;;;;;;;11.60;10.50;;;;;;;23.64;80.28;96816.44;5055816;28;20163;-66
2021/08/13 06:19:16;;;;;;;10.63;9.63;;;;;;;23.77;79.83;96829.06;5055812;28;20262;-65
2021/08/13 06:21:41;;;;;;;12.03;10.83;;;;;;;23.77;79.61;96832.53;5056186;28;20175;-66
2021/08/13 06:24:07;;;;;;;10.50;9.50;;;;;;;23.82;79.47;96835.13;5074917;28;20256;-66
2021/08/13 06:26:32;;;;;;;10.37;9.37;;;;;;;23.91;78.76;96829.88;5075692;28;20198;-66
2021/08/13 06:28:57;;;;;;;10.93;9.90;;;;;;;23.94;79.12;96831.94;5075618;28;20557;-68
2021/08/13 06:31:23;;;;;;;10.10;9.30;;;;;;;23.99;79.06;96829.16;5076066;28;20188;-59
2021/08/13 06:33:49;;;;;;;11.67;10.57;;;;;;;23.89;78.42;96832.06;5068985;28;20179;-63
2021/08/13 06:36:15;;;;;;;11.00;10.00;;;;;;;23.94;79.18;96829.25;5056085;28;20167;-63
2021/08/13 06:38:40;;;;;;;10.80;9.90;;;;;;;24.01;79.40;96837.75;5070219;28;20936;-63
2021/08/13 06:41:05;;;;;;;10.47;9.57;;;;;;;23.97;79.91;96826.78;5075345;28;20170;-63
2021/08/13 06:43:31;;;;;;;10.80;9.70;;;;;;;24.00;80.21;96830.75;5075077;28;20177;-59
2021/08/13 06:45:56;;;;;;;10.93;9.70;;;;;;;24.02;78.40;96839.34;5075177;28;20198;-63
2021/08/13 06:48:22;;;;;;;10.80;9.83;;;;;;;24.19;78.47;96840.31;5057511;28;20195;-63
2021/08/13 06:50:47;;;;;;;10.00;9.10;;;;;;;24.26;78.50;96834.53;5055305;28;20182;-63
2021/08/13 06:53:13;;;;;;;9.80;9.00;;;;;;;24.31;78.81;96837.91;5055343;28;20656;-63
2021/08/13 06:55:38;;;;;;;11.10;9.67;;;;;;;24.32;78.26;96836.81;5075221;28;20205;-59
2021/08/13 06:58:04;;;;;;;10.70;9.67;;;;;;;24.47;77.93;96841.09;5075236;28;20198;-60
2021/08/13 07:00:29;;;;;;;10.00;9.00;;;;;;;24.48;77.18;96835.41;5091502;28;20184;-60
2021/08/13 07:02:55;;;;;;;9.47;7.93;;;;;;;24.40;76.54;96852.22;5073739;28;20183;-65
2021/08/13 07:05:20;;;;;;;8.00;7.20;;;;;;;24.27;75.32;96845.00;5068659;28;20202;-63
2021/08/13 07:07:46;;;;;;;7.23;6.60;;;;;;;24.09;75.47;96845.91;5063001;28;20199;-62
2021/08/13 07:10:12;;;;;;;8.07;7.30;;;;;;;24.32;74.29;96844.88;5062628;28;20182;-61
2021/08/13 07:12:38;;;;;;;10.27;6.80;;;;;;;24.35;74.28;96851.53;5063797;28;20233;-63
2021/08/13 07:15:05;;;;;;;9.73;7.40;;;;;;;24.18;73.77;96852.16;5064303;28;20281;-66
2021/08/13 07:17:31;;;;;;;7.83;6.97;;;;;;;24.33;74.24;96853.75;5061621;28;20422;-65
2021/08/13 07:19:56;;;;;;;9.23;6.90;;;;;;;24.40;75.02;96851.44;5062666;28;20491;-62
2021/08/13 07:22:21;;;;;;;9.77;7.30;;;;;;;24.48;75.36;96851.53;5081857;28;20185;-61
2021/08/13 07:24:47;;;;;;;7.70;7.00;;;;;;;24.49;73.75;96855.78;5094006;28;20664;-66
2021/08/13 07:27:12;;;;;;;7.87;7.07;;;;;;;24.57;73.61;96856.97;5094627;28;20194;-62
2021/08/13 07:29:37;;;;;;;8.10;7.30;;;;;;;24.65;73.63;96850.09;5094667;28;20177;-62
2021/08/13 07:32:03;;;;;;;8.60;6.57;;;;;;;24.74;72.50;96853.69;5094754;28;20170;-66
2021/08/13 07:34:28;;;;;;;8.33;6.97;;;;;;;24.80;72.48;96844.41;5094045;28;20194;-66
2021/08/13 07:36:54;;;;;;;7.03;6.33;;;;;;;24.74;72.00;96845.63;5080422;28;20181;-62
2021/08/13 07:39:19;;;;;;;8.30;6.40;;;;;;;24.92;70.98;96855.41;5071552;28;20182;-66
2021/08/13 07:42:05;;;;;;;6.60;5.67;;;;;;;25.14;70.24;96858.13;5065096;28;20180;-67
2021/08/13 07:44:30;;;;;;;8.90;6.30;;;;;;;25.21;69.59;96861.16;5072064;28;20719;-69
2021/08/13 07:46:56;;;;;;;7.80;6.77;;;;;;;25.31;68.77;96861.72;5089502;28;20467;-69
2021/08/13 07:49:21;;;;;;;6.13;5.57;;;;;;;25.62;67.96;96855.59;5092642;28;20186;-63
2021/08/13 07:51:47;;;;;;;7.40;5.57;;;;;;;25.72;66.62;96855.31;5092178;28;20200;-65
2021/08/13 07:54:12;;;;;;;6.60;5.80;;;;;;;25.82;67.88;96865.84;5091825;28;20542;-65
2021/08/13 07:56:38;;;;;;;7.27;6.67;;;;;;;25.99;67.62;96861.31;5092294;28;20213;-69
2021/08/13 07:59:03;;;;;;;6.10;5.33;;;;;;;25.78;66.37;96857.56;5096980;28;20212;-64
2021/08/13 08:01:28;;;;;;;6.30;5.23;;;;;;;25.84;66.12;96864.41;5082396;28;20221;-61
2021/08/13 08:03:54;;;;;;;6.47;5.63;;;;;;;26.02;66.86;96863.38;5071154;28;20175;-61
2021/08/13 08:06:19;;;;;;;9.67;6.10;;;;;;;26.05;65.87;96870.09;5071684;28;20202;-61
2021/08/13 08:08:44;;;;;;;7.17;5.10;;;;;;;25.93;64.32;96873.31;5071783;28;20258;-65
2021/08/13 08:11:10;;;;;;;5.40;4.90;;;;;;;26.17;64.15;96871.06;5076634;28;20180;-64
2021/08/13 08:13:35;;;;;;;5.67;4.70;;;;;;;26.47;64.72;96874.00;5091805;28;20178;-62
2021/08/13 08:16:03;;;;;;;6.90;5.37;;;;;;;26.62;64.92;96878.94;5090984;28;20664;-64
2021/08/13 08:18:31;;;;;;;5.60;5.10;;;;;;;26.66;64.58;96878.00;5072478;28;20694;-61
2021/08/13 08:20:57;;;;;;;6.27;5.67;;;;;;;26.54;64.21;96877.03;5077969;28;20422;-62
2021/08/13 08:23:22;;;;;;;8.80;5.27;;;;;;;26.63;63.35;96884.03;5053007;28;20410;-64
2021/08/13 08:25:48;;;;;;;6.80;5.23;;;;;;;26.83;63.77;96885.34;5053350;28;20187;-64
2021/08/13 08:28:13;;;;;;;6.33;5.70;;;;;;;26.96;62.64;96876.31;5051540;28;20209;-61
2021/08/13 08:30:39;;;;;;;8.63;5.27;;;;;;;27.07;63.40;96888.34;5052136;28;20206;-64
2021/08/13 08:33:04;;;;;;;6.00;5.30;;;;;;;27.21;63.59;96886.31;5053132;28;20364;-65
2021/08/13 08:35:29;;;;;;;6.43;5.83;;;;;;;27.37;63.32;96887.44;5053343;28;20203;-61
2021/08/13 08:38:01;;;;;;;7.63;5.40;;;;;;;27.32;62.21;96893.00;5070475;28;20225;-65
2021/08/13 08:40:32;;;;;;;9.10;5.33;;;;;;;27.29;62.59;96893.59;5071554;28;20163;-64
2021/08/13 08:43:00;;;;;;;6.60;5.23;;;;;;;27.08;62.16;96895.38;5069601;28;20401;-62
2021/08/13 08:45:28;;;;;;;5.60;5.10;;;;;;;27.04;62.50;96905.19;5069738;28;20425;-63
2021/08/13 08:47:57;;;;;;;6.80;5.83;;;;;;;26.98;64.62;96896.47;5084316;28;20900;-63
2021/08/13 08:50:23;;;;;;;6.03;5.43;;;;;;;27.22;63.79;96893.28;5072235;28;20425;-61
2021/08/13 08:52:49;;;;;;;6.87;5.20;;;;;;;27.19;63.41;96896.63;5068852;28;20405;-61
2021/08/13 08:55:15;;;;;;;6.90;6.20;;;;;;;27.21;64.63;96884.38;5070173;28;20413;-63
2021/08/13 08:57:42;;;;;;;5.97;5.13;;;;;;;26.85;63.73;96888.53;5065624;28;20414;-64
2021/08/13 09:00:08;;;;;;;8.07;5.90;;;;;;;27.02;63.76;96883.13;5053037;28;20195;-67
2021/08/13 09:02:34;;;;;;;7.77;6.10;;;;;;;27.05;63.17;96887.91;5059299;28;20468;-60
2021/08/13 09:05:00;;;;;;;6.40;5.27;;;;;;;27.24;63.61;96886.47;5070084;28;20495;-65
2021/08/13 09:07:27;;;;;;;6.83;5.60;;;;;;;27.42;62.86;96893.47;5056555;28;20293;-66
2021/08/13 09:09:53;;;;;;;5.70;5.00;;;;;;;27.44;65.30;96903.94;5064890;28;20429;-65
2021/08/13 09:12:18;;;;;;;6.97;5.70;;;;;;;27.34;63.42;96905.06;5051953;28;20532;-65
2021/08/13 09:14:44;;;;;;;7.60;5.60;;;;;;;27.69;63.30;96899.59;5047300;28;20933;-66
2021/08/13 09:17:10;;;;;;;8.50;5.37;;;;;;;27.81;63.92;96905.16;5047601;28;20294;-65
2021/08/13 09:19:48;;;;;;;6.83;5.73;;;;;;;27.90;63.17;96895.88;5053867;28;20171;-65
2021/08/13 09:22:19;;;;;;;7.70;5.67;;;;;;;28.18;63.08;96896.28;5050651;28;20464;-64
2021/08/13 09:24:50;;;;;;;6.97;5.40;;;;;;;27.83;62.23;96892.09;5050940;28;20561;-64
2021/08/13 09:27:27;;;;;;;7.30;5.90;;;;;;;28.21;63.39;96893.72;5049489;28;20809;-64
2021/08/13 09:30:09;;;;;;;6.40;5.90;;;;;;;28.05;62.24;96900.78;5049769;28;20429;-66
2021/08/13 09:32:35;;;;;;;6.90;6.07;;;;;;;28.15;62.42;96897.75;5049106;28;20434;-65
2021/08/13 09:35:03;;;;;;;9.97;6.67;;;;;;;28.40;61.17;96896.03;5047244;28;20969;-65
2021/08/13 09:37:28;;;;;;;6.87;5.83;;;;;;;28.51;61.81;96896.44;5054891;28;20953;-64
2021/08/13 09:39:55;;;;;;;7.83;6.03;;;;;;;28.54;61.57;96895.81;5048806;28;20429;-64
2021/08/13 09:42:21;;;;;;;8.73;6.70;;;;;;;28.78;60.50;96896.78;5050590;28;20206;-65
2021/08/13 09:45:00;;;;;;;6.63;6.00;;;;;;;29.02;60.90;96905.06;5051364;28;20449;-65
2021/08/13 09:47:38;;;;;;;7.20;6.20;;;;;;;28.55;60.77;96900.13;5050926;28;20199;-65
2021/08/13 09:50:04;;;;;;;6.50;5.90;;;;;;;28.61;63.21;96904.22;5053004;28;20924;-64
2021/08/13 09:52:29;;;;;;;7.67;6.00;;;;;;;28.54;61.60;96907.44;5053375;28;20442;-66
2021/08/13 09:55:13;;;;;;;6.67;5.93;;;;;;;28.85;61.18;96898.94;5052225;28;20536;-65
2021/08/13 09:57:47;;;;;;;8.20;5.90;;;;;;;28.98;60.83;96898.72;5054837;28;20187;-64
2021/08/13 10:00:15;;;;;;;8.57;6.50;;;;;;;28.73;64.80;96896.97;5051092;28;20935;-66
2021/08/13 10:02:41;;;;;;;6.77;6.17;;;;;;;28.96;61.43;96892.03;5049858;28;20436;-66
2021/08/13 10:05:17;;;;;;;5.97;5.47;;;;;;;29.22;61.04;96893.44;5052065;28;20452;-68
2021/08/13 10:07:52;;;;;;;6.90;6.30;;;;;;;29.53;60.82;96898.44;5053076;28;20456;-64
2021/08/13 10:10:29;;;;;;;6.80;6.10;;;;;;;29.40;59.38;96897.56;5050807;28;20430;-67
2021/08/13 10:12:55;;;;;;;7.80;7.00;;;;;;;29.19;59.79;96898.72;5049913;28;20430;-65
2021/08/13 10:15:36;;;;;;;7.13;6.40;;;;;;;29.03;60.09;96897.69;5049749;28;20446;-64
2021/08/13 10:18:06;;;;;;;7.73;6.77;;;;;;;29.05;60.14;96900.88;5051976;28;20433;-65
2021/08/13 10:20:36;;;;;;;6.83;6.23;;;;;;;29.58;59.48;96895.50;5053793;28;20438;-64
2021/08/13 10:23:02;;;;;;;7.03;6.43;;;;;;;29.91;59.23;96893.56;5050781;28;20461;-65
2021/08/13 10:25:28;;;;;;;6.67;6.07;;;;;;;30.12;60.49;96894.28;5065196;28;20555;-69
2021/08/13 10:27:54;;;;;;;7.87;6.30;;;;;;;30.33;60.05;96894.19;5053157;28;20552;-67
2021/08/13 10:30:21;;;;;;;9.57;6.63;;;;;;;30.43;59.19;96891.03;5050379;28;20215;-66
2021/08/13 10:32:47;;;;;;;7.13;6.53;;;;;;;30.54;59.61;96883.22;5049203;28;20270;-67
2021/08/13 10:35:14;;;;;;;6.37;5.87;;;;;;;30.45;58.26;96883.34;5051958;28;20464;-69
2021/08/13 10:37:41;;;;;;;6.60;6.00;;;;;;;30.56;58.44;96889.09;5050946;28;20461;-68
2021/08/13 10:40:08;;;;;;;10.60;6.30;;;;;;;30.45;58.32;96885.28;5050267;28;20952;-72
2021/08/13 10:42:38;;;;;;;6.90;6.10;;;;;;;30.54;57.75;96897.59;5053632;28;20936;-71
2021/08/13 10:45:08;;;;;;;8.20;6.50;;;;;;;30.58;58.42;96901.22;5051724;28;20499;-73
2021/08/13 10:48:12;;;;;;;8.00;6.50;;;;;;;30.61;58.04;96894.31;5053005;28;20504;-73
2021/08/13 10:50:39;;;;;;;7.50;6.77;;;;;;;30.60;58.11;96896.22;5056561;28;20521;-74
2021/08/13 10:53:29;;;;;;;7.03;6.43;;;;;;;30.52;57.61;96893.63;5045889;28;20433;-73
2021/08/13 10:55:57;;;;;;;8.60;7.70;;;;;;;30.51;57.92;96887.41;5046726;28;20484;-73
2021/08/13 10:58:41;;;;;;;9.00;8.10;;;;;;;30.32;59.71;96885.28;5048152;28;20442;-73
2021/08/13 11:01:10;;;;;;;8.03;7.33;;;;;;;30.34;58.70;96891.16;5047684;28;20441;-74
2021/08/13 11:03:43;;;;;;;8.30;7.50;;;;;;;30.33;58.06;96891.47;5050177;28;20513;-74
2021/08/13 11:06:10;;;;;;;8.47;7.67;;;;;;;30.38;58.63;96890.47;5050053;28;20472;-73
2021/08/13 11:08:41;;;;;;;8.57;7.83;;;;;;;30.40;60.02;96894.44;5048139;28;20441;-74
2021/08/13 11:11:11;;;;;;;8.43;7.73;;;;;;;30.50;62.98;96895.88;5049750;28;20436;-74
2021/08/13 11:13:42;;;;;;;9.63;8.40;;;;;;;30.45;61.36;96894.22;5045378;28;20617;-75
2021/08/13 11:16:25;;;;;;;8.90;7.93;;;;;;;30.60;60.89;96884.59;5046002;28;20461;-75
2021/08/13 11:18:58;;;;;;;8.60;7.90;;;;;;;30.70;60.82;96892.25;5047969;28;20433;-73
2021/08/13 11:21:51;;;;;;;8.80;8.10;;;;;;;30.59;60.66;96886.50;5045985;28;20446;-73
2021/08/13 11:24:23;;;;;;;8.40;7.70;;;;;;;30.74;61.78;96885.81;5047657;28;20461;-73
2021/08/13 11:26:51;;;;;;;8.33;7.63;;;;;;;30.89;59.54;96884.34;5047201;28;20462;-73
2021/08/13 11:29:33;;;;;;;10.60;8.40;;;;;;;30.85;58.87;96878.00;5045675;28;20491;-73
2021/08/13 11:32:14;;;;;;;8.80;7.50;;;;;;;30.74;59.41;96877.66;5045855;28;20457;-73